Time;durP1;ratioP1;P1;durP2;ratioP2;P2;SDS_P1;SDS_P2;PMS_P1;PMS_P2;Temp;Humidity;BMP_temperature;BMP_pressure;BME280_temperature;BME280_humidity;BME280_pressure;Samples;Min_cycle;Max_cycle;Signal;HPM_P1;HPM_P2
2021/03/04 00:00:46;;;;;;;7.63;6.93;;;23.00;99.90;;;;;;5073971;28;20524;-59
2021/03/04 00:03:13;;;;;;;8.23;7.38;;;23.10;99.90;;;;;;5073742;28;20392;-62
2021/03/04 00:05:41;;;;;;;7.85;7.25;;;23.00;99.90;;;;;;5073772;28;20056;-61
2021/03/04 00:08:08;;;;;;;6.40;5.90;;;23.20;99.90;;;;;;5074492;28;20029;-58
2021/03/04 00:10:36;;;;;;;8.18;7.38;;;23.50;99.90;;;;;;5072416;28;20050;-59
2021/03/04 00:13:03;;;;;;;7.90;7.25;;;23.80;99.90;;;;;;5073622;28;20468;-59
2021/03/04 00:15:33;;;;;;;8.10;7.50;;;23.70;99.90;;;;;;5073591;28;20024;-58
2021/03/04 00:18:01;;;;;;;8.43;7.63;;;23.30;99.90;;;;;;5073876;28;20431;-59
2021/03/04 00:20:31;;;;;;;8.50;7.72;;;23.30;99.90;;;;;;5073505;28;20108;-60
2021/03/04 00:22:59;;;;;;;7.85;7.10;;;23.60;99.90;;;;;;5073790;28;20060;-60
2021/03/04 00:25:29;;;;;;;7.70;7.20;;;24.20;99.90;;;;;;5073383;28;20033;-58
2021/03/04 00:27:56;;;;;;;8.25;7.60;;;24.40;99.90;;;;;;5072127;28;20024;-60
2021/03/04 00:30:25;;;;;;;6.75;6.10;;;24.30;99.90;;;;;;5073659;28;20412;-61
2021/03/04 00:32:52;;;;;;;7.22;6.35;;;23.70;99.90;;;;;;5073585;28;20521;-61
2021/03/04 00:35:21;;;;;;;7.57;6.22;;;23.80;99.90;;;;;;5073228;28;20021;-60
2021/03/04 00:37:48;;;;;;;7.13;6.43;;;24.40;99.90;;;;;;5073288;28;20050;-59
2021/03/04 00:40:19;;;;;;;8.32;6.95;;;24.80;99.90;;;;;;5073040;28;20112;-57
2021/03/04 00:42:46;;;;;;;6.88;6.38;;;24.30;99.90;;;;;;5073540;28;20028;-57
2021/03/04 00:45:19;;;;;;;7.00;6.40;;;24.30;99.90;;;;;;5073045;28;20520;-60
2021/03/04 00:47:47;;;;;;;7.72;7.03;;;23.60;99.90;;;;;;5073034;28;20085;-58
2021/03/04 00:50:17;;;;;;;6.72;6.32;;;23.30;99.90;;;;;;5073175;28;20020;-58
2021/03/04 00:52:44;;;;;;;6.63;6.20;;;23.40;99.90;;;;;;5073199;28;20021;-59
2021/03/04 00:55:12;;;;;;;7.28;6.68;;;24.00;99.90;;;;;;5072873;28;20021;-58
2021/03/04 00:57:40;;;;;;;6.78;6.15;;;24.10;99.90;;;;;;5073006;28;20605;-62
2021/03/04 01:00:09;;;;;;;7.80;6.97;;;24.00;99.90;;;;;;5073026;28;20150;-57
2021/03/04 01:02:36;;;;;;;9.05;7.10;;;24.20;99.90;;;;;;5072450;28;20024;-55
2021/03/04 01:05:05;;;;;;;7.07;6.68;;;24.00;99.90;;;;;;5072858;28;20037;-56
2021/03/04 01:07:33;;;;;;;7.78;6.72;;;23.70;99.90;;;;;;5072886;28;20424;-60
2021/03/04 01:10:00;;;;;;;6.40;6.00;;;23.90;99.90;;;;;;5072036;28;20025;-61
2021/03/04 01:12:28;;;;;;;7.25;6.60;;;24.40;99.90;;;;;;5073027;28;20078;-58
2021/03/04 01:14:55;;;;;;;6.03;5.20;;;24.60;99.90;;;;;;5072884;28;20048;-60
2021/03/04 01:17:24;;;;;;;7.30;6.60;;;24.60;99.90;;;;;;5072858;28;20095;-58
2021/03/04 01:19:51;;;;;;;7.93;7.10;;;24.70;99.90;;;;;;5072802;28;20033;-59
2021/03/04 01:22:19;;;;;;;7.15;6.45;;;25.10;99.90;;;;;;5072846;28;20021;-59
2021/03/04 01:24:46;;;;;;;6.80;6.40;;;25.70;99.90;;;;;;5072836;28;20108;-60
2021/03/04 01:27:13;;;;;;;7.38;6.78;;;26.10;99.90;;;;;;5072620;28;20029;-62
2021/03/04 01:29:41;;;;;;;6.60;6.20;;;26.30;99.90;;;;;;5072785;28;20472;-59
2021/03/04 01:32:08;;;;;;;6.20;5.80;;;26.70;99.90;;;;;;5071583;28;20017;-60
2021/03/04 01:34:36;;;;;;;6.32;5.93;;;26.50;99.90;;;;;;5072770;28;20107;-57
2021/03/04 01:37:03;;;;;;;7.50;6.78;;;26.50;99.90;;;;;;5072717;28;20418;-58
2021/03/04 01:39:30;;;;;;;7.88;7.18;;;26.40;99.90;;;;;;5073273;28;20522;-59
2021/03/04 01:41:58;;;;;;;7.95;7.35;;;26.40;99.90;;;;;;5071284;28;20102;-59
2021/03/04 01:44:25;;;;;;;6.80;6.30;;;25.70;99.90;;;;;;5072581;28;20427;-58
2021/03/04 01:46:53;;;;;;;8.80;7.65;;;25.50;99.90;;;;;;5072588;28;20013;-58
2021/03/04 01:49:22;;;;;;;8.40;7.78;;;25.70;99.90;;;;;;5072132;28;20028;-59
2021/03/04 01:51:50;;;;;;;7.10;6.63;;;26.00;99.90;;;;;;5072252;28;20029;-61
2021/03/04 01:54:18;;;;;;;6.03;5.57;;;26.50;99.90;;;;;;5072300;28;20035;-59
2021/03/04 01:56:47;;;;;;;6.38;6.07;;;26.80;99.30;;;;;;5071427;28;20032;-59
2021/03/04 01:59:14;;;;;;;7.22;6.63;;;27.00;99.90;;;;;;5072321;28;20028;-58
2021/03/04 02:01:42;;;;;;;6.95;6.40;;;26.70;99.80;;;;;;5072294;28;20491;-61
2021/03/04 02:04:09;;;;;;;7.53;7.07;;;26.90;99.90;;;;;;5072394;28;20031;-61
2021/03/04 02:06:47;;;;;;;8.05;7.55;;;27.50;99.90;;;;;;5070954;28;20056;-60
2021/03/04 02:09:18;;;;;;;7.63;7.10;;;27.30;99.40;;;;;;5070984;28;20075;-60
2021/03/04 02:11:56;;;;;;;7.00;6.35;;;27.10;99.60;;;;;;5072340;28;20044;-60
2021/03/04 02:14:33;;;;;;;8.00;7.47;;;26.10;99.90;;;;;;5074378;28;20016;-60
2021/03/04 02:17:06;;;;;;;7.60;7.00;;;26.80;99.90;;;;;;5075812;28;20024;-60
2021/03/04 02:19:49;;;;;;;6.85;6.10;;;27.20;99.60;;;;;;5075731;28;20032;-60
2021/03/04 02:22:37;;;;;;;7.43;6.85;;;27.10;99.90;;;;;;5075769;28;20031;-60
2021/03/04 02:25:14;;;;;;;7.07;6.57;;;26.70;98.80;;;;;;5075640;28;20025;-60
2021/03/04 02:27:42;;;;;;;8.65;6.50;;;26.80;99.90;;;;;;5075847;28;20035;-60
2021/03/04 02:30:16;;;;;;;6.90;6.40;;;27.10;99.10;;;;;;5075500;28;20103;-60
2021/03/04 02:32:51;;;;;;;7.65;7.05;;;26.50;99.00;;;;;;5075553;28;20017;-60
2021/03/04 02:35:31;;;;;;;6.40;6.00;;;26.90;99.10;;;;;;5075588;28;20025;-61
2021/03/04 02:38:01;;;;;;;8.23;7.53;;;26.50;99.60;;;;;;5075477;28;20370;-61
2021/03/04 02:40:31;;;;;;;7.38;6.90;;;26.50;99.90;;;;;;5075162;28;20029;-61
2021/03/04 02:43:00;;;;;;;8.20;7.50;;;26.90;99.00;;;;;;5075448;28;20036;-62
2021/03/04 02:45:28;;;;;;;7.85;7.32;;;27.20;99.80;;;;;;5075400;28;20461;-61
2021/03/04 02:47:56;;;;;;;8.38;7.63;;;26.80;99.60;;;;;;5073836;28;20435;-62
2021/03/04 02:50:25;;;;;;;8.63;8.02;;;27.20;99.60;;;;;;5075201;28;20017;-62
2021/03/04 02:52:52;;;;;;;7.95;7.43;;;27.80;99.90;;;;;;5075118;28;20020;-62
2021/03/04 02:55:22;;;;;;;8.15;7.55;;;27.40;99.10;;;;;;5075616;28;20036;-62
2021/03/04 02:57:51;;;;;;;8.10;7.60;;;27.80;99.90;;;;;;5075143;28;20385;-62
2021/03/04 03:00:21;;;;;;;7.85;7.28;;;28.20;99.10;;;;;;5075050;28;20496;-56
2021/03/04 03:02:51;;;;;;;7.97;7.38;;;28.00;97.70;;;;;;5074878;28;20029;-58
2021/03/04 03:05:22;;;;;;;7.75;7.15;;;27.70;98.10;;;;;;5074906;28;20025;-59
2021/03/04 03:07:50;;;;;;;7.38;6.88;;;28.10;99.30;;;;;;5074592;28;20093;-59
2021/03/04 03:10:18;;;;;;;8.20;7.45;;;28.40;98.50;;;;;;5074968;28;20082;-60
2021/03/04 03:12:48;;;;;;;8.38;7.65;;;27.80;97.60;;;;;;5075146;28;20025;-59
2021/03/04 03:15:18;;;;;;;8.15;7.50;;;28.00;97.60;;;;;;5073586;28;20017;-61
2021/03/04 03:17:48;;;;;;;9.20;7.82;;;28.70;98.30;;;;;;5074834;28;20033;-60
2021/03/04 03:20:18;;;;;;;8.00;7.30;;;28.60;96.50;;;;;;5074742;28;20075;-59
2021/03/04 03:22:47;;;;;;;7.85;7.28;;;28.00;96.70;;;;;;5075286;28;20346;-59
2021/03/04 03:25:15;;;;;;;8.23;7.68;;;27.60;97.00;;;;;;5074185;28;20469;-58
2021/03/04 03:27:45;;;;;;;7.70;7.20;;;27.60;97.20;;;;;;5074522;28;20032;-58
2021/03/04 03:30:22;;;;;;;7.70;7.10;;;28.10;97.60;;;;;;5074428;28;20021;-59
2021/03/04 03:33:07;;;;;;;7.28;6.85;;;29.00;96.70;;;;;;5074541;28;20390;-60
2021/03/04 03:35:35;;;;;;;8.23;7.72;;;28.50;95.40;;;;;;5074648;28;20044;-60
2021/03/04 03:38:03;;;;;;;8.00;7.55;;;28.40;95.20;;;;;;5074245;28;20072;-59
2021/03/04 03:40:33;;;;;;;8.38;7.68;;;28.30;96.40;;;;;;5074135;28;20091;-58
2021/03/04 03:43:04;;;;;;;9.15;8.48;;;28.30;96.80;;;;;;5074255;28;20035;-59
2021/03/04 03:45:35;;;;;;;8.27;7.80;;;28.10;97.40;;;;;;5074082;28;20024;-59
2021/03/04 03:48:07;;;;;;;8.73;8.10;;;28.60;96.40;;;;;;5073941;28;20118;-59
2021/03/04 03:50:35;;;;;;;8.25;7.45;;;28.40;95.60;;;;;;5074249;28;20074;-60
2021/03/04 03:53:03;;;;;;;8.10;7.30;;;28.80;97.10;;;;;;5074022;28;20465;-58
2021/03/04 03:55:31;;;;;;;8.20;7.40;;;29.10;98.90;;;;;;5074047;28;20020;-58
2021/03/04 03:58:01;;;;;;;8.00;7.40;;;27.20;99.90;;;;;;5074005;28;20036;-59
2021/03/04 04:00:29;;;;;;;8.65;7.38;;;28.10;99.90;;;;;;5074046;28;20384;-59
2021/03/04 04:03:04;;;;;;;7.93;7.18;;;28.60;99.90;;;;;;5073640;28;20028;-59
2021/03/04 04:05:32;;;;;;;8.55;7.60;;;28.20;99.90;;;;;;5073742;28;20492;-61
2021/03/04 04:08:00;;;;;;;8.02;7.38;;;28.60;99.90;;;;;;5073616;28;20028;-58
2021/03/04 04:10:30;;;;;;;7.30;6.90;;;29.10;99.30;;;;;;5073639;28;20032;-59
2021/03/04 04:12:58;;;;;;;7.83;7.03;;;28.80;99.90;;;;;;5073721;28;20362;-60
2021/03/04 04:15:26;;;;;;;7.65;6.90;;;28.90;99.90;;;;;;5073660;28;20420;-60
2021/03/04 04:17:59;;;;;;;7.75;7.07;;;29.00;99.90;;;;;;5073573;28;20029;-58
2021/03/04 04:20:28;;;;;;;7.63;6.80;;;29.10;99.90;;;;;;5073888;28;20074;-59
2021/03/04 04:22:56;;;;;;;7.30;6.60;;;29.10;99.90;;;;;;5073585;28;20073;-59
2021/03/04 04:25:25;;;;;;;7.57;6.60;;;28.60;99.90;;;;;;5073527;28;20025;-58
2021/03/04 04:27:53;;;;;;;8.02;7.15;;;28.50;99.90;;;;;;5073313;28;20052;-58
2021/03/04 04:30:22;;;;;;;7.90;7.30;;;28.40;99.90;;;;;;5073356;28;20384;-58
2021/03/04 04:32:49;;;;;;;7.28;6.60;;;28.50;99.90;;;;;;5073403;28;20052;-58
2021/03/04 04:35:17;;;;;;;6.85;6.30;;;28.70;99.90;;;;;;5073327;28;20051;-62
2021/03/04 04:37:45;;;;;;;7.65;6.50;;;28.80;99.90;;;;;;5072767;28;20104;-62
2021/03/04 04:40:13;;;;;;;6.78;6.18;;;28.80;99.90;;;;;;5071853;28;20025;-64
2021/03/04 04:42:40;;;;;;;6.53;5.80;;;28.90;99.90;;;;;;5071965;28;20036;-62
2021/03/04 04:45:09;;;;;;;7.25;6.20;;;28.90;99.90;;;;;;5073161;28;20044;-63
2021/03/04 04:47:37;;;;;;;6.88;6.20;;;28.60;99.90;;;;;;5073035;28;20020;-62
2021/03/04 04:50:05;;;;;;;9.45;6.22;;;28.60;99.90;;;;;;5073144;28;20047;-62
2021/03/04 04:52:32;;;;;;;9.32;6.55;;;28.50;99.90;;;;;;5073271;28;20021;-62
2021/03/04 04:55:00;;;;;;;9.80;7.28;;;28.70;99.90;;;;;;5073172;28;20020;-62
2021/03/04 04:57:27;;;;;;;6.47;5.80;;;28.70;99.90;;;;;;5073150;28;20100;-62
2021/03/04 04:59:54;;;;;;;6.00;5.53;;;28.60;99.90;;;;;;5073268;28;20023;-62
2021/03/04 05:02:22;;;;;;;6.75;6.13;;;28.50;99.90;;;;;;5073011;28;20414;-63
2021/03/04 05:04:49;;;;;;;7.05;6.03;;;28.50;99.90;;;;;;5072971;28;20380;-63
2021/03/04 05:07:16;;;;;;;6.95;6.22;;;28.20;99.90;;;;;;5072912;28;20025;-63
2021/03/04 05:09:43;;;;;;;6.97;6.38;;;28.10;99.90;;;;;;5072954;28;20028;-63
2021/03/04 05:12:11;;;;;;;7.50;6.90;;;28.10;99.90;;;;;;5072969;28;20325;-63
2021/03/04 05:14:38;;;;;;;8.50;6.80;;;28.40;99.90;;;;;;5071642;28;20017;-63
2021/03/04 05:17:07;;;;;;;7.10;6.20;;;28.40;99.90;;;;;;5071761;28;20028;-64
2021/03/04 05:19:34;;;;;;;7.25;6.65;;;28.20;99.90;;;;;;5073054;28;20027;-66
2021/03/04 05:22:01;;;;;;;7.45;6.75;;;28.20;99.90;;;;;;5073038;28;20021;-65
2021/03/04 05:24:28;;;;;;;7.30;6.75;;;28.10;99.90;;;;;;5072867;28;20052;-66
2021/03/04 05:26:56;;;;;;;7.65;6.82;;;28.00;99.90;;;;;;5072887;28;20028;-65
2021/03/04 05:29:23;;;;;;;7.95;7.28;;;28.10;99.90;;;;;;5071490;28;20028;-64
2021/03/04 05:31:51;;;;;;;7.88;7.20;;;28.00;99.90;;;;;;5072922;28;20081;-65
2021/03/04 05:34:18;;;;;;;6.90;6.35;;;27.80;99.90;;;;;;5072808;28;20100;-64
2021/03/04 05:36:45;;;;;;;7.50;6.50;;;27.90;99.90;;;;;;5072829;28;20357;-63
2021/03/04 05:39:13;;;;;;;8.13;6.80;;;28.00;99.90;;;;;;5072674;28;20063;-62
2021/03/04 05:41:41;;;;;;;6.90;6.32;;;27.80;99.90;;;;;;5071279;28;20129;-62
2021/03/04 05:44:08;;;;;;;7.88;6.65;;;27.50;99.90;;;;;;5073018;28;20028;-62
2021/03/04 05:46:36;;;;;;;9.32;7.40;;;27.50;99.90;;;;;;5072729;28;20033;-62
2021/03/04 05:49:06;;;;;;;7.97;7.40;;;27.40;99.90;;;;;;5075596;28;20056;-62
2021/03/04 05:51:40;;;;;;;8.68;7.85;;;27.40;99.90;;;;;;5076344;28;20476;-61
2021/03/04 05:54:11;;;;;;;7.80;7.15;;;27.30;99.90;;;;;;5076738;28;20436;-62
2021/03/04 05:56:40;;;;;;;7.93;7.22;;;27.30;99.90;;;;;;5076306;28;20021;-62
2021/03/04 05:59:09;;;;;;;8.57;7.22;;;27.50;99.90;;;;;;5076100;28;20033;-61
2021/03/04 06:01:37;;;;;;;11.52;7.93;;;27.30;99.90;;;;;;5076185;28;20017;-62
2021/03/04 06:04:05;;;;;;;8.30;6.82;;;27.30;99.90;;;;;;5076055;28;20042;-62
2021/03/04 06:06:33;;;;;;;7.28;6.78;;;27.30;99.90;;;;;;5076034;28;20385;-62
2021/03/04 06:09:02;;;;;;;7.95;6.47;;;27.20;99.90;;;;;;5075845;28;20028;-63
2021/03/04 06:11:30;;;;;;;7.88;7.15;;;27.00;99.90;;;;;;5075961;28;20539;-62
2021/03/04 06:13:58;;;;;;;7.70;6.72;;;27.10;99.90;;;;;;5074939;28;20067;-62
2021/03/04 06:16:26;;;;;;;7.18;6.40;;;27.30;99.90;;;;;;5075858;28;20017;-63
2021/03/04 06:18:54;;;;;;;8.52;6.20;;;27.50;99.90;;;;;;5076177;28;20029;-62
2021/03/04 06:21:28;;;;;;;7.70;5.80;;;27.70;99.90;;;;;;5076032;28;20027;-62
2021/03/04 06:23:58;;;;;;;7.47;6.70;;;27.70;99.90;;;;;;5075816;28;20098;-64
2021/03/04 06:26:39;;;;;;;8.90;6.60;;;28.10;99.90;;;;;;5058206;28;20025;-63
2021/03/04 06:29:13;;;;;;;9.48;6.50;;;29.60;99.90;;;;;;5075949;28;20024;-62
2021/03/04 06:31:42;;;;;;;8.13;6.32;;;30.70;99.90;;;;;;5074272;28;20028;-63
2021/03/04 06:34:23;;;;;;;6.72;5.85;;;30.70;99.90;;;;;;5075639;28;20074;-63
2021/03/04 06:37:05;;;;;;;6.60;6.00;;;31.10;99.90;;;;;;5075461;28;20028;-63
2021/03/04 06:39:41;;;;;;;6.80;6.20;;;31.90;99.90;;;;;;5074326;28;20028;-63
2021/03/04 06:42:09;;;;;;;8.52;6.70;;;32.80;99.50;;;;;;5075324;28;20059;-62
2021/03/04 06:44:56;;;;;;;8.02;7.22;;;32.60;99.00;;;;;;5075463;28;20114;-62
2021/03/04 06:47:30;;;;;;;6.82;6.32;;;32.70;99.00;;;;;;5073955;28;20025;-63
2021/03/04 06:49:57;;;;;;;7.75;6.50;;;32.30;98.90;;;;;;5075526;28;20412;-62
2021/03/04 06:52:33;;;;;;;6.63;6.10;;;32.20;99.00;;;;;;5075239;28;20396;-63
2021/03/04 06:55:10;;;;;;;6.35;5.93;;;31.80;99.20;;;;;;5075176;28;20107;-63
2021/03/04 06:57:37;;;;;;;8.38;6.30;;;32.30;98.90;;;;;;5074915;28;20048;-63
2021/03/04 07:00:07;;;;;;;6.88;6.28;;;32.40;99.10;;;;;;5074467;28;20123;-63
2021/03/04 07:02:35;;;;;;;7.90;6.07;;;32.40;99.00;;;;;;5073688;28;20514;-63
2021/03/04 07:05:03;;;;;;;8.65;6.00;;;32.20;99.20;;;;;;5073742;28;20066;-63
2021/03/04 07:07:31;;;;;;;8.15;5.60;;;32.40;99.20;;;;;;5074908;28;20048;-62
2021/03/04 07:09:59;;;;;;;6.53;5.90;;;32.40;98.90;;;;;;5075390;28;20017;-61
2021/03/04 07:12:27;;;;;;;6.45;5.85;;;33.10;98.60;;;;;;5074879;28;20016;-61
2021/03/04 07:14:55;;;;;;;8.68;5.85;;;32.80;98.50;;;;;;5074792;28;20439;-62
2021/03/04 07:17:26;;;;;;;6.82;5.93;;;32.60;98.60;;;;;;5074765;28;20082;-62
2021/03/04 07:19:59;;;;;;;6.40;5.80;;;32.00;99.30;;;;;;5073454;28;20017;-61
2021/03/04 07:22:27;;;;;;;7.55;5.53;;;30.70;99.90;;;;;;5074982;28;20481;-62
2021/03/04 07:24:55;;;;;;;7.20;5.78;;;29.10;99.90;;;;;;5074798;28;20031;-62
2021/03/04 07:27:23;;;;;;;6.35;5.75;;;27.50;99.90;;;;;;5073329;28;20027;-61
2021/03/04 07:29:51;;;;;;;6.65;5.88;;;26.90;99.90;;;;;;5074432;28;20070;-61
2021/03/04 07:32:22;;;;;;;6.72;5.93;;;26.40;99.90;;;;;;5074453;28;20114;-60
2021/03/04 07:34:50;;;;;;;6.95;6.20;;;25.80;99.90;;;;;;5074868;28;20082;-58
2021/03/04 07:37:20;;;;;;;7.25;6.18;;;25.80;99.90;;;;;;5074581;28;20066;-58
2021/03/04 07:39:57;;;;;;;9.35;6.20;;;25.70;99.90;;;;;;5074649;28;20456;-60
2021/03/04 07:42:25;;;;;;;9.02;5.85;;;25.70;99.90;;;;;;5072882;28;20094;-60
2021/03/04 07:44:52;;;;;;;8.68;6.75;;;25.60;99.90;;;;;;5075125;28;20028;-57
2021/03/04 07:47:28;;;;;;;7.70;6.80;;;25.00;99.90;;;;;;5074427;28;20028;-58
2021/03/04 07:49:56;;;;;;;7.70;6.72;;;24.90;99.90;;;;;;5074227;28;20024;-58
2021/03/04 07:52:25;;;;;;;7.38;6.68;;;24.90;99.90;;;;;;5074035;28;20017;-58
2021/03/04 07:54:56;;;;;;;7.97;6.80;;;24.70;99.90;;;;;;5074031;28;20023;-58
2021/03/04 07:57:26;;;;;;;11.23;7.15;;;24.50;99.90;;;;;;5075351;28;20046;-58
2021/03/04 07:59:55;;;;;;;7.60;6.90;;;24.50;99.90;;;;;;5074164;28;20036;-58
2021/03/04 08:02:30;;;;;;;7.47;6.72;;;24.40;99.90;;;;;;5073765;28;20057;-59
2021/03/04 08:05:11;;;;;;;8.05;7.32;;;24.30;99.90;;;;;;5073761;28;20477;-58
2021/03/04 08:07:40;;;;;;;8.52;7.05;;;24.20;99.90;;;;;;5073991;28;20118;-59
2021/03/04 08:10:15;;;;;;;8.48;7.18;;;24.10;99.90;;;;;;5073961;28;20023;-57
2021/03/04 08:13:00;;;;;;;10.00;7.05;;;24.10;99.90;;;;;;5073400;28;20024;-58
2021/03/04 08:15:47;;;;;;;7.25;6.65;;;24.00;99.90;;;;;;5073965;28;20027;-58
2021/03/04 08:18:20;;;;;;;7.10;6.38;;;23.90;99.90;;;;;;5073861;28;20091;-59
2021/03/04 08:20:48;;;;;;;8.77;6.90;;;23.70;99.90;;;;;;5073460;28;20170;-57
2021/03/04 08:23:20;;;;;;;7.70;6.32;;;23.60;99.90;;;;;;5073426;28;20025;-58
2021/03/04 08:25:48;;;;;;;7.85;7.05;;;23.50;99.90;;;;;;5073313;28;20028;-57
2021/03/04 08:28:26;;;;;;;7.40;6.70;;;23.60;99.90;;;;;;5073238;28;20052;-58
2021/03/04 08:30:54;;;;;;;8.02;7.00;;;23.40;99.90;;;;;;5073495;28;20025;-58
2021/03/04 08:33:21;;;;;;;7.82;6.93;;;23.30;99.90;;;;;;5073864;28;20017;-58
2021/03/04 08:35:55;;;;;;;8.27;7.22;;;23.20;99.90;;;;;;5073391;28;20024;-59
2021/03/04 08:38:22;;;;;;;8.10;7.20;;;23.20;99.90;;;;;;5073369;28;20033;-57
2021/03/04 08:40:53;;;;;;;7.88;7.00;;;23.10;99.90;;;;;;5073043;28;20132;-58
2021/03/04 08:43:24;;;;;;;9.57;7.28;;;23.10;99.90;;;;;;5073274;28;20033;-59
2021/03/04 08:45:57;;;;;;;9.05;7.55;;;23.00;99.90;;;;;;5073278;28;20024;-58
2021/03/04 08:48:25;;;;;;;7.72;6.95;;;23.00;99.90;;;;;;5071912;28;20370;-58
2021/03/04 08:50:55;;;;;;;8.25;7.35;;;22.80;99.90;;;;;;5073256;28;20016;-58
2021/03/04 08:53:27;;;;;;;8.53;7.40;;;22.70;99.90;;;;;;5073101;28;20473;-58
2021/03/04 08:55:56;;;;;;;9.90;7.45;;;22.60;99.90;;;;;;5073041;28;20024;-58
2021/03/04 08:58:26;;;;;;;8.25;7.57;;;22.60;99.90;;;;;;5073648;28;20039;-58
2021/03/04 09:01:00;;;;;;;9.65;7.95;;;22.50;99.90;;;;;;5073020;28;20437;-58
2021/03/04 09:03:47;;;;;;;8.93;7.93;;;22.40;99.90;;;;;;5073010;28;20025;-55
2021/03/04 09:06:16;;;;;;;9.10;8.25;;;22.30;99.90;;;;;;5073377;28;20036;-58
2021/03/04 09:08:48;;;;;;;9.25;8.35;;;22.30;99.90;;;;;;5071949;28;20556;-58
2021/03/04 09:11:34;;;;;;;10.10;9.10;;;22.20;99.90;;;;;;5073042;28;20457;-59
2021/03/04 09:14:11;;;;;;;13.23;10.02;;;22.20;99.90;;;;;;5072935;28;20035;-58
2021/03/04 09:16:51;;;;;;;9.98;8.98;;;22.10;99.90;;;;;;5072838;28;20115;-58
2021/03/04 09:19:33;;;;;;;12.40;9.20;;;22.10;99.90;;;;;;5073272;28;20153;-59
2021/03/04 09:22:04;;;;;;;10.43;9.57;;;22.10;99.90;;;;;;5073053;28;20500;-59
2021/03/04 09:24:33;;;;;;;9.50;8.65;;;22.00;99.90;;;;;;5077232;28;20096;-59
2021/03/04 09:27:05;;;;;;;9.65;8.85;;;22.00;99.90;;;;;;5076880;28;20046;-59
2021/03/04 09:29:33;;;;;;;11.05;9.45;;;21.90;99.90;;;;;;5076784;28;20021;-59
2021/03/04 09:32:00;;;;;;;10.80;9.90;;;21.90;99.90;;;;;;5076837;28;20021;-59
2021/03/04 09:34:36;;;;;;;10.93;9.95;;;21.90;99.90;;;;;;5075531;28;20389;-59
2021/03/04 09:37:09;;;;;;;11.82;10.73;;;21.80;99.90;;;;;;5076702;28;20032;-60
2021/03/04 09:39:47;;;;;;;12.18;11.27;;;21.80;99.90;;;;;;5076916;28;20025;-58
2021/03/04 09:42:21;;;;;;;12.43;11.20;;;21.90;99.90;;;;;;5076324;28;20040;-60
2021/03/04 09:44:56;;;;;;;11.73;10.65;;;21.80;99.90;;;;;;5076906;28;20033;-58
2021/03/04 09:47:30;;;;;;;13.93;12.50;;;21.90;99.90;;;;;;5076435;28;20020;-58
2021/03/04 09:49:58;;;;;;;13.27;12.27;;;21.90;99.90;;;;;;5075257;28;20503;-60
2021/03/04 09:52:28;;;;;;;13.10;12.10;;;21.80;99.90;;;;;;5076322;28;20048;-59
2021/03/04 09:55:24;;;;;;;13.52;12.35;;;21.80;99.90;;;;;;5076388;28;20024;-59
2021/03/04 09:57:52;;;;;;;12.82;11.73;;;21.80;99.90;;;;;;5063718;28;20041;-59
2021/03/04 10:00:24;;;;;;;14.15;13.15;;;21.80;99.90;;;;;;5076197;28;20032;-59
2021/03/04 10:02:53;;;;;;;16.63;15.50;;;21.80;99.90;;;;;;5076085;28;20028;-59
2021/03/04 10:05:22;;;;;;;15.77;14.60;;;21.70;99.90;;;;;;5076065;28;20111;-59
2021/03/04 10:07:56;;;;;;;16.55;15.20;;;21.60;99.90;;;;;;5076023;28;20032;-59
2021/03/04 10:10:23;;;;;;;16.55;15.57;;;21.60;99.90;;;;;;5074985;28;20028;-59
2021/03/04 10:12:56;;;;;;;16.20;15.10;;;21.50;99.90;;;;;;5076026;28;20074;-58
2021/03/04 10:15:49;;;;;;;17.45;16.35;;;21.40;99.90;;;;;;5075963;28;20051;-59
2021/03/04 10:18:17;;;;;;;17.80;16.73;;;21.30;99.90;;;;;;5073698;28;20064;-59
2021/03/04 10:20:46;;;;;;;18.88;17.40;;;21.30;99.90;;;;;;5075937;28;20389;-59
2021/03/04 10:23:17;;;;;;;18.95;17.63;;;21.20;99.90;;;;;;5074576;28;20477;-58
2021/03/04 10:25:45;;;;;;;19.38;18.15;;;21.20;99.90;;;;;;5075780;28;20017;-59
2021/03/04 10:28:12;;;;;;;17.77;16.52;;;21.10;99.90;;;;;;5075622;28;20449;-58
2021/03/04 10:30:40;;;;;;;16.95;15.95;;;21.10;99.90;;;;;;5075701;28;20020;-58
2021/03/04 10:33:07;;;;;;;18.02;16.90;;;21.20;99.90;;;;;;5075636;28;20025;-60
2021/03/04 10:35:37;;;;;;;17.70;16.58;;;21.20;99.90;;;;;;5074604;28;20520;-59
2021/03/04 10:38:05;;;;;;;18.48;17.27;;;21.20;99.90;;;;;;5075503;28;20035;-59
2021/03/04 10:40:33;;;;;;;18.23;17.00;;;21.20;99.90;;;;;;5075304;28;20497;-59
2021/03/04 10:43:00;;;;;;;19.02;17.73;;;21.10;99.90;;;;;;5076065;28;20029;-59
2021/03/04 10:45:27;;;;;;;18.77;17.70;;;21.10;99.90;;;;;;5075324;28;20021;-59
2021/03/04 10:47:55;;;;;;;18.95;17.85;;;21.10;99.90;;;;;;5075622;28;20056;-59
2021/03/04 10:50:24;;;;;;;20.00;18.77;;;21.00;99.90;;;;;;5075535;28;20024;-59
2021/03/04 10:52:51;;;;;;;19.52;18.27;;;20.90;99.90;;;;;;5075219;28;20017;-59
2021/03/04 10:55:19;;;;;;;20.52;19.20;;;21.00;99.90;;;;;;5075236;28;20028;-58
2021/03/04 10:57:46;;;;;;;19.73;18.58;;;20.90;99.90;;;;;;5075141;28;20103;-59
2021/03/04 11:00:14;;;;;;;20.55;19.17;;;20.90;99.90;;;;;;5075073;28;20032;-57
2021/03/04 11:02:42;;;;;;;20.10;18.95;;;20.90;99.90;;;;;;5074946;28;20021;-58
2021/03/04 11:05:10;;;;;;;19.52;18.52;;;20.90;99.90;;;;;;5075009;28;20099;-59
2021/03/04 11:07:38;;;;;;;19.42;18.20;;;20.90;99.90;;;;;;5075098;28;20052;-59
2021/03/04 11:10:06;;;;;;;19.48;18.30;;;;;;;;;;5075213;28;20025;-59
2021/03/04 11:12:34;;;;;;;19.50;18.20;;;20.80;99.90;;;;;;5075211;28;20028;-57
2021/03/04 11:15:01;;;;;;;18.60;17.60;;;20.80;99.90;;;;;;5074954;28;20012;-59
2021/03/04 11:17:29;;;;;;;18.60;17.60;;;20.80;99.90;;;;;;5074734;28;20016;-58
2021/03/04 11:19:56;;;;;;;19.05;17.88;;;20.80;99.90;;;;;;5074798;28;20036;-59
2021/03/04 11:22:23;;;;;;;19.45;18.40;;;20.90;99.90;;;;;;5075063;28;20016;-59
2021/03/04 11:24:51;;;;;;;19.20;18.13;;;20.90;99.90;;;;;;5074892;28;20033;-59
2021/03/04 11:27:19;;;;;;;19.23;18.05;;;20.80;99.90;;;;;;5074873;28;20017;-59
2021/03/04 11:29:47;;;;;;;19.38;18.38;;;20.80;99.90;;;;;;5074394;28;20422;-58
2021/03/04 11:32:18;;;;;;;20.80;19.23;;;20.80;99.90;;;;;;5074750;28;20021;-58
2021/03/04 11:34:45;;;;;;;;;;;20.70;99.90;;;;;;5074896;28;20021;-59
2021/03/04 11:37:12;;;;;;;22.02;20.67;;;20.70;99.90;;;;;;5074658;28;19904;-59
2021/03/04 11:39:40;;;;;;;22.90;21.42;;;20.70;99.90;;;;;;5074416;28;20029;-58
2021/03/04 11:42:07;;;;;;;22.48;21.30;;;20.60;99.90;;;;;;5074163;28;20076;-60
2021/03/04 11:44:35;;;;;;;24.23;23.02;;;20.70;99.90;;;;;;5074265;28;20036;-58
2021/03/04 11:47:02;;;;;;;24.60;23.10;;;20.50;99.90;;;;;;5073947;28;20543;-58
2021/03/04 11:49:29;;;;;;;24.58;23.27;;;20.50;99.90;;;;;;5074142;28;20034;-57
2021/03/04 11:51:59;;;;;;;25.17;23.70;;;20.50;99.90;;;;;;5074288;28;20044;-58
2021/03/04 11:54:26;;;;;;;24.20;22.70;;;20.50;99.90;;;;;;5074093;28;20056;-59
2021/03/04 11:56:54;;;;;;;26.17;24.85;;;20.50;99.90;;;;;;5073995;28;20012;-58
2021/03/04 11:59:21;;;;;;;26.58;24.98;;;20.50;99.90;;;;;;5073980;28;20033;-58
2021/03/04 12:01:48;;;;;;;26.65;25.15;;;20.50;99.90;;;;;;5073925;28;20210;-59
2021/03/04 12:04:15;;;;;;;26.40;25.00;;;20.50;99.90;;;;;;5073739;28;20027;-59
2021/03/04 12:06:43;;;;;;;26.90;25.55;;;20.40;99.90;;;;;;5074449;28;20369;-58
2021/03/04 12:09:10;;;;;;;27.23;25.77;;;20.40;99.90;;;;;;5073735;28;20059;-58
2021/03/04 12:11:37;;;;;;;26.85;25.35;;;20.40;99.90;;;;;;5073778;28;20100;-58
2021/03/04 12:14:05;;;;;;;27.38;25.98;;;20.30;99.90;;;;;;5073805;28;20012;-59
2021/03/04 12:16:32;;;;;;;30.48;28.55;;;20.20;99.90;;;;;;5073668;28;20119;-60
2021/03/04 12:18:59;;;;;;;32.30;30.70;;;20.20;99.90;;;;;;5073719;28;20085;-60
2021/03/04 12:21:27;;;;;;;32.75;31.05;;;20.20;99.90;;;;;;5073685;28;20024;-59
2021/03/04 12:23:54;;;;;;;32.35;30.75;;;20.20;99.90;;;;;;5073655;28;20029;-57
2021/03/04 12:26:21;;;;;;;32.70;30.70;;;20.20;99.90;;;;;;5072280;28;20036;-57
2021/03/04 12:28:48;;;;;;;33.20;31.38;;;20.20;99.90;;;;;;5073391;28;20024;-58
2021/03/04 12:31:16;;;;;;;31.85;30.13;;;20.20;99.90;;;;;;5073326;28;20028;-56
2021/03/04 12:33:43;;;;;;;32.22;30.42;;;20.30;99.90;;;;;;5073337;28;20016;-57
2021/03/04 12:36:10;;;;;;;32.03;30.13;;;20.30;99.90;;;;;;5073464;28;20404;-58
2021/03/04 12:38:38;;;;;;;30.48;29.08;;;20.20;99.90;;;;;;5073375;28;20081;-58
2021/03/04 12:41:05;;;;;;;30.75;28.95;;;20.10;99.90;;;;;;5073142;28;20041;-59
2021/03/04 12:43:32;;;;;;;30.35;28.75;;;20.20;99.90;;;;;;5073323;28;20384;-57
2021/03/04 12:46:00;;;;;;;31.60;29.70;;;20.10;99.90;;;;;;5073807;28;20135;-56
2021/03/04 12:48:27;;;;;;;30.88;29.30;;;20.10;99.90;;;;;;5073176;28;20048;-57
2021/03/04 12:50:55;;;;;;;32.08;30.27;;;20.10;99.90;;;;;;5073245;28;20461;-58
2021/03/04 12:53:22;;;;;;;33.58;31.85;;;20.00;99.90;;;;;;5073171;28;20025;-56
2021/03/04 12:55:51;;;;;;;33.83;31.77;;;20.00;99.90;;;;;;5073126;28;20020;-58